Time;durP1;ratioP1;P1;durP2;ratioP2;P2;SDS_P1;SDS_P2;PMS_P1;PMS_P2;Temp;Humidity;BMP_temperature;BMP_pressure;BME280_temperature;BME280_humidity;BME280_pressure;Samples;Min_cycle;Max_cycle;Signal;HPM_P1;HPM_P2
2023/09/01 00:00:15;;;;;;;3.90;3.40;;;;;;;;;;5042522;28;20823;-58
2023/09/01 00:02:42;;;;;;;6.82;4.03;;;;;;;;;;5054626;28;20145;-56
2023/09/01 00:05:08;;;;;;;6.15;4.03;;;;;;;;;;5041151;28;20050;-57
2023/09/01 00:07:35;;;;;;;5.03;4.15;;;;;;;;;;5042479;28;20057;-58
2023/09/01 00:10:03;;;;;;;6.78;4.35;;;;;;;;;;5034171;28;20070;-57
2023/09/01 00:12:30;;;;;;;7.15;4.40;;;;;;;;;;5042491;28;20046;-59
2023/09/01 00:14:56;;;;;;;10.38;4.13;;;;;;;;;;5041128;28;20053;-54
2023/09/01 00:17:23;;;;;;;7.65;4.30;;;;;;;;;;5055822;28;20143;-57
2023/09/01 00:19:49;;;;;;;10.32;4.90;;;;;;;;;;5045666;28;20054;-58
2023/09/01 00:22:16;;;;;;;7.65;4.80;;;;;;;;;;5042028;28;20088;-58
2023/09/01 00:24:42;;;;;;;12.10;4.90;;;;;;;;;;5042300;28;20578;-59
2023/09/01 00:27:09;;;;;;;8.93;4.70;;;;;;;;;;5042732;28;20058;-56
2023/09/01 00:29:35;;;;;;;6.93;4.43;;;;;;;;;;5042837;28;20053;-56
2023/09/01 00:32:02;;;;;;;9.63;4.38;;;;;;;;;;5047364;28;20054;-58
2023/09/01 00:34:30;;;;;;;7.10;4.57;;;;;;;;;;5041308;28;20617;-56
2023/09/01 00:36:56;;;;;;;9.15;4.82;;;;;;;;;;5045769;28;20139;-53
2023/09/01 00:39:23;;;;;;;6.28;4.07;;;;;;;;;;5044855;28;20099;-57
2023/09/01 00:41:49;;;;;;;8.95;4.85;;;;;;;;;;5045394;28;20076;-58
2023/09/01 00:44:16;;;;;;;7.07;4.22;;;;;;;;;;5043629;28;20607;-59
2023/09/01 00:46:46;;;;;;;7.20;4.00;;;;;;;;;;5046745;28;20057;-57
2023/09/01 00:49:16;;;;;;;11.10;4.60;;;;;;;;;;5047000;28;20072;-59
2023/09/01 00:51:46;;;;;;;8.00;3.97;;;;;;;;;;5060710;28;20056;-59
2023/09/01 00:54:14;;;;;;;9.52;4.13;;;;;;;;;;5056041;28;20504;-58
2023/09/01 00:56:41;;;;;;;8.00;4.40;;;;;;;;;;5046897;28;20053;-58
2023/09/01 00:59:08;;;;;;;8.18;4.07;;;;;;;;;;5044350;28;20054;-57
2023/09/01 01:01:35;;;;;;;5.80;3.70;;;;;;;;;;5045137;28;20053;-57
2023/09/01 01:04:07;;;;;;;6.18;4.10;;;;;;;;;;5043895;28;20066;-58
2023/09/01 01:06:40;;;;;;;7.82;4.28;;;;;;;;;;5029893;28;20060;-56
2023/09/01 01:09:08;;;;;;;5.95;4.38;;;;;;;;;;5041015;28;20061;-58
2023/09/01 01:11:57;;;;;;;6.00;4.45;;;;;;;;;;5044152;28;20317;-56
2023/09/01 01:14:31;;;;;;;10.00;4.70;;;;;;;;;;5042616;28;20049;-57
2023/09/01 01:16:58;;;;;;;4.75;3.55;;;;;;;;;;5042060;28;20594;-58
2023/09/01 01:19:43;;;;;;;6.75;4.13;;;;;;;;;;5054607;28;20145;-58
2023/09/01 01:22:09;;;;;;;6.00;3.85;;;;;;;;;;5039296;28;20050;-57
2023/09/01 01:24:36;;;;;;;7.15;4.20;;;;;;;;;;5038387;28;20058;-57
2023/09/01 01:27:02;;;;;;;7.05;4.80;;;;;;;;;;5026911;28;20129;-58
2023/09/01 01:29:29;;;;;;;6.60;4.38;;;;;;;;;;5034440;28;20149;-57
2023/09/01 01:31:57;;;;;;;6.97;4.60;;;;;;;;;;5028164;28;20527;-58
2023/09/01 01:34:33;;;;;;;8.93;5.07;;;;;;;;;;5044366;28;20274;-57
2023/09/01 01:37:10;;;;;;;10.38;5.47;;;;;;;;;;5044819;28;20059;-57
2023/09/01 01:39:37;;;;;;;8.23;4.80;;;;;;;;;;5043683;28;20072;-57
2023/09/01 01:42:10;;;;;;;6.82;4.10;;;;;;;;;;5042742;28;20053;-58
2023/09/01 01:44:39;;;;;;;8.88;3.83;;;;;;;;;;5043449;28;20116;-59
2023/09/01 01:47:07;;;;;;;6.15;4.70;;;;;;;;;;5043095;28;20056;-58
2023/09/01 01:49:34;;;;;;;4.38;3.97;;;;;;;;;;5026903;28;20068;-57
2023/09/01 01:52:01;;;;;;;9.43;4.05;;;;;;;;;;5034860;28;20050;-59
2023/09/01 01:54:27;;;;;;;6.13;4.13;;;;;;;;;;5048250;28;20140;-58
2023/09/01 01:56:54;;;;;;;6.47;4.10;;;;;;;;;;5064238;28;20782;-56
2023/09/01 01:59:20;;;;;;;11.68;4.55;;;;;;;;;;5043077;28;20081;-57
2023/09/01 02:01:47;;;;;;;7.32;4.35;;;;;;;;;;5045068;28;20060;-58
2023/09/01 02:04:13;;;;;;;7.85;4.32;;;;;;;;;;5053722;28;20538;-57
2023/09/01 02:06:40;;;;;;;7.25;3.95;;;;;;;;;;5042392;28;20519;-58
2023/09/01 02:09:09;;;;;;;10.27;4.13;;;;;;;;;;5044178;28;20061;-58
2023/09/01 02:11:36;;;;;;;6.40;3.90;;;;;;;;;;5043770;28;20084;-58
2023/09/01 02:14:03;;;;;;;5.10;3.53;;;;;;;;;;5040153;28;20219;-58
2023/09/01 02:16:29;;;;;;;5.60;3.85;;;;;;;;;;5045268;28;20049;-57
2023/09/01 02:18:56;;;;;;;8.60;4.75;;;;;;;;;;5042849;28;20578;-57
2023/09/01 02:21:22;;;;;;;8.13;4.05;;;;;;;;;;5043100;28;20053;-57
2023/09/01 02:23:49;;;;;;;7.68;3.42;;;;;;;;;;5043225;28;20141;-58
2023/09/01 02:26:19;;;;;;;6.13;4.07;;;;;;;;;;5044333;28;20061;-53
2023/09/01 02:28:46;;;;;;;7.03;3.72;;;;;;;;;;5049199;28;20140;-58
2023/09/01 02:31:13;;;;;;;5.60;3.25;;;;;;;;;;5043680;28;20148;-58
2023/09/01 02:33:39;;;;;;;5.00;3.58;;;;;;;;;;5034853;28;20054;-58
2023/09/01 02:36:25;;;;;;;9.25;4.28;;;;;;;;;;5038350;28;20060;-58
2023/09/01 02:38:52;;;;;;;;;;;;;;;;;;5043042;28;20045;-55
2023/09/01 02:41:18;;;;;;;7.57;4.18;;;;;;;;;;5059460;28;46120;-55
2023/09/01 02:43:45;;;;;;;9.05;3.80;;;;;;;;;;5043564;28;20115;-57
2023/09/01 02:46:12;;;;;;;7.72;4.22;;;;;;;;;;5044966;28;20080;-58
2023/09/01 02:48:38;;;;;;;6.57;4.40;;;;;;;;;;5043298;28;20060;-59
2023/09/01 02:51:05;;;;;;;8.50;4.10;;;;;;;;;;5042722;28;20057;-56
2023/09/01 02:53:32;;;;;;;7.70;4.18;;;;;;;;;;5041719;28;20046;-57
2023/09/01 02:55:58;;;;;;;15.10;4.88;;;;;;;;;;5042346;28;20081;-58
2023/09/01 02:58:25;;;;;;;8.38;4.07;;;;;;;;;;5042141;28;20053;-58
2023/09/01 03:00:51;;;;;;;10.60;4.88;;;;;;;;;;5026896;28;20057;-58
2023/09/01 03:03:21;;;;;;;12.75;4.90;;;;;;;;;;5042596;28;20144;-58
2023/09/01 03:05:49;;;;;;;8.55;4.35;;;;;;;;;;5040917;28;20582;-59
2023/09/01 03:08:18;;;;;;;7.22;4.95;;;;;;;;;;5053617;28;20057;-59
2023/09/01 03:10:45;;;;;;;9.52;4.50;;;;;;;;;;5055751;28;20435;-58
2023/09/01 03:13:11;;;;;;;5.88;4.43;;;;;;;;;;5032705;28;20112;-57
2023/09/01 03:15:40;;;;;;;8.63;5.60;;;;;;;;;;5039672;28;20531;-59
2023/09/01 03:18:06;;;;;;;9.20;5.00;;;;;;;;;;5042507;28;20525;-56
2023/09/01 03:20:34;;;;;;;12.57;4.93;;;;;;;;;;5041328;28;20064;-59
2023/09/01 03:23:00;;;;;;;9.98;4.93;;;;;;;;;;5058358;28;20060;-59
2023/09/01 03:25:27;;;;;;;12.05;4.97;;;;;;;;;;5043102;28;20057;-58
2023/09/01 03:27:53;;;;;;;9.35;4.78;;;;;;;;;;5041648;28;20538;-58
2023/09/01 03:30:19;;;;;;;9.18;5.55;;;;;;;;;;5042708;28;20232;-54
2023/09/01 03:32:46;;;;;;;8.30;5.57;;;;;;;;;;5041147;28;20060;-58
2023/09/01 03:35:12;;;;;;;8.88;4.88;;;;;;;;;;5046787;28;20053;-58
2023/09/01 03:37:39;;;;;;;11.88;5.10;;;;;;;;;;5042109;28;20144;-58
2023/09/01 03:40:09;;;;;;;10.57;5.55;;;;;;;;;;5040249;28;20143;-57
2023/09/01 03:42:36;;;;;;;11.70;5.47;;;;;;;;;;5030281;28;20057;-57
2023/09/01 03:45:02;;;;;;;11.15;5.88;;;;;;;;;;5042324;28;20077;-56
2023/09/01 03:47:29;;;;;;;15.77;6.45;;;;;;;;;;5043675;28;20053;-57
2023/09/01 03:49:56;;;;;;;11.57;6.00;;;;;;;;;;5045985;28;20530;-59
2023/09/01 03:52:22;;;;;;;7.05;5.13;;;;;;;;;;5052953;28;20120;-58
2023/09/01 03:54:49;;;;;;;10.05;6.10;;;;;;;;;;5036417;28;20053;-58
2023/09/01 03:57:15;;;;;;;11.68;5.78;;;;;;;;;;5026581;28;20058;-58
2023/09/01 03:59:43;;;;;;;8.40;5.50;;;;;;;;;;5041249;28;20130;-58
2023/09/01 04:02:10;;;;;;;11.32;6.00;;;;;;;;;;5044631;28;20060;-59
2023/09/01 04:04:36;;;;;;;10.68;5.93;;;;;;;;;;5055119;28;20049;-58
2023/09/01 04:07:03;;;;;;;10.82;6.60;;;;;;;;;;5026658;28;20944;-58
2023/09/01 04:09:29;;;;;;;11.65;5.95;;;;;;;;;;5039567;28;20532;-59
2023/09/01 04:11:56;;;;;;;12.90;5.85;;;;;;;;;;5037103;28;20100;-58
2023/09/01 04:14:23;;;;;;;11.38;6.45;;;;;;;;;;5033429;28;20488;-57
2023/09/01 04:16:50;;;;;;;9.75;6.65;;;;;;;;;;5044250;28;20085;-58
2023/09/01 04:19:16;;;;;;;15.18;6.18;;;;;;;;;;5044918;28;20049;-58
2023/09/01 04:21:43;;;;;;;9.77;6.80;;;;;;;;;;5043591;28;20053;-58
2023/09/01 04:24:10;;;;;;;10.90;6.40;;;;;;;;;;5041349;28;20054;-59
2023/09/01 04:26:36;;;;;;;12.77;6.45;;;;;;;;;;5042647;28;20084;-58
2023/09/01 04:29:03;;;;;;;12.25;6.28;;;;;;;;;;5042836;28;20543;-59
2023/09/01 04:31:30;;;;;;;9.25;5.97;;;;;;;;;;5034109;28;20063;-54
2023/09/01 04:33:57;;;;;;;14.73;6.40;;;;;;;;;;5044169;28;20072;-57
2023/09/01 04:36:26;;;;;;;14.95;6.47;;;;;;;;;;5042718;28;20057;-59
2023/09/01 04:39:13;;;;;;;11.05;6.90;;;;;;;;;;5031648;28;20056;-56
2023/09/01 04:41:40;;;;;;;12.02;6.40;;;;;;;;;;5035172;28;20053;-59
2023/09/01 04:44:07;;;;;;;9.48;6.32;;;;;;;;;;5032868;28;20116;-58
2023/09/01 04:46:33;;;;;;;12.45;6.70;;;;;;;;;;5038318;28;20054;-55
2023/09/01 04:49:00;;;;;;;16.52;7.05;;;;;;;;;;5033471;28;20057;-58
2023/09/01 04:51:27;;;;;;;14.32;7.35;;;;;;;;;;5033045;28;20050;-56
2023/09/01 04:53:53;;;;;;;12.98;7.22;;;;;;;;;;5043357;28;20111;-59
2023/09/01 04:56:20;;;;;;;13.43;6.75;;;;;;;;;;5031833;28;20061;-57
2023/09/01 04:58:46;;;;;;;21.83;7.45;;;;;;;;;;5033662;28;20049;-58
2023/09/01 05:01:12;;;;;;;10.90;5.97;;;;;;;;;;5047590;28;20083;-57
2023/09/01 05:03:39;;;;;;;12.88;7.32;;;;;;;;;;5040992;28;20107;-57
2023/09/01 05:06:07;;;;;;;12.07;7.07;;;;;;;;;;5037708;28;20104;-58
2023/09/01 05:08:34;;;;;;;13.52;7.57;;;;;;;;;;5043370;28;20061;-59
2023/09/01 05:11:00;;;;;;;13.45;7.65;;;;;;;;;;5035532;28;20464;-59
2023/09/01 05:13:27;;;;;;;11.80;6.97;;;;;;;;;;5049948;28;20102;-57
2023/09/01 05:15:54;;;;;;;13.18;7.00;;;;;;;;;;5045456;28;20081;-58
2023/09/01 05:18:20;;;;;;;12.98;6.93;;;;;;;;;;5035800;28;20834;-58
2023/09/01 05:20:48;;;;;;;10.30;7.10;;;;;;;;;;5032389;28;20124;-57
2023/09/01 05:23:14;;;;;;;13.40;7.75;;;;;;;;;;5033245;28;20060;-55
2023/09/01 05:25:41;;;;;;;10.50;6.65;;;;;;;;;;5044976;28;20046;-57
2023/09/01 05:28:07;;;;;;;8.95;6.93;;;;;;;;;;5042680;28;20508;-58
2023/09/01 05:30:36;;;;;;;17.20;7.97;;;;;;;;;;5043609;28;20046;-59
2023/09/01 05:33:03;;;;;;;15.32;7.82;;;;;;;;;;5062362;28;20061;-58
2023/09/01 05:35:30;;;;;;;12.80;7.68;;;;;;;;;;5041892;28;20523;-58
2023/09/01 05:37:56;;;;;;;12.82;7.35;;;;;;;;;;5042148;28;20394;-55
2023/09/01 05:40:23;;;;;;;15.95;8.30;;;;;;;;;;5033333;28;20068;-55
2023/09/01 05:42:49;;;;;;;13.13;7.50;;;;;;;;;;5041464;28;20056;-58
2023/09/01 05:45:16;;;;;;;14.18;8.55;;;;;;;;;;5042977;28;20129;-58
2023/09/01 05:47:44;;;;;;;16.33;8.32;;;;;;;;;;5035139;28;20081;-58
2023/09/01 05:50:10;;;;;;;16.13;8.27;;;;;;;;;;5038344;28;20053;-56
2023/09/01 05:52:37;;;;;;;16.73;8.15;;;;;;;;;;5032325;28;20062;-59
2023/09/01 05:55:03;;;;;;;12.52;8.05;;;;;;;;;;5038747;28;20148;-58
2023/09/01 05:57:30;;;;;;;12.40;7.70;;;;;;;;;;5053604;28;20053;-57
2023/09/01 05:59:58;;;;;;;13.45;7.40;;;;;;;;;;5056357;28;20814;-53
2023/09/01 06:02:24;;;;;;;14.80;7.90;;;;;;;;;;5036356;28;20555;-57
2023/09/01 06:04:51;;;;;;;17.73;7.95;;;;;;;;;;5040392;28;20182;-55
2023/09/01 06:07:17;;;;;;;15.07;8.70;;;;;;;;;;5040141;28;20057;-59
2023/09/01 06:09:43;;;;;;;13.23;8.20;;;;;;;;;;5041350;28;20153;-57
2023/09/01 06:12:11;;;;;;;14.25;7.47;;;;;;;;;;5033444;28;20196;-58
2023/09/01 06:14:37;;;;;;;16.48;7.57;;;;;;;;;;5038813;28;20504;-59
2023/09/01 06:17:04;;;;;;;13.18;7.38;;;;;;;;;;5042721;28;20504;-58
2023/09/01 06:19:31;;;;;;;16.88;8.38;;;;;;;;;;5040721;28;21121;-58
2023/09/01 06:21:57;;;;;;;11.55;7.70;;;;;;;;;;5044718;28;20139;-58
2023/09/01 06:24:23;;;;;;;12.77;7.78;;;;;;;;;;5040127;28;20061;-56
2023/09/01 06:26:50;;;;;;;13.18;7.25;;;;;;;;;;5045457;28;20062;-58
2023/09/01 06:29:16;;;;;;;10.57;6.50;;;;;;;;;;5029665;28;20140;-58
2023/09/01 06:31:43;;;;;;;12.45;6.97;;;;;;;;;;5026616;28;20049;-57
2023/09/01 06:34:09;;;;;;;9.35;6.90;;;;;;;;;;5043580;28;20531;-59
2023/09/01 06:36:36;;;;;;;21.15;8.13;;;;;;;;;;5042444;28;20083;-59
2023/09/01 06:39:02;;;;;;;13.55;6.93;;;;;;;;;;5042915;28;20430;-59
2023/09/01 06:41:29;;;;;;;10.35;6.85;;;;;;;;;;5043192;28;20053;-59
2023/09/01 06:43:55;;;;;;;13.15;6.60;;;;;;;;;;5040207;28;20049;-58
2023/09/01 06:46:22;;;;;;;11.00;6.95;;;;;;;;;;5028885;28;20551;-58
2023/09/01 06:48:48;;;;;;;10.70;6.53;;;;;;;;;;5052453;28;20344;-59
2023/09/01 06:51:15;;;;;;;10.52;6.70;;;;;;;;;;5036091;28;20085;-59
2023/09/01 06:53:42;;;;;;;9.27;7.18;;;;;;;;;;5029762;28;20554;-56
2023/09/01 06:56:09;;;;;;;13.15;6.53;;;;;;;;;;5039937;28;20085;-57
2023/09/01 06:58:35;;;;;;;14.40;6.60;;;;;;;;;;5023258;28;20073;-59
2023/09/01 07:01:06;;;;;;;11.45;6.05;;;;;;;;;;5045115;28;20059;-60
2023/09/01 07:03:32;;;;;;;11.80;6.18;;;;;;;;;;5037651;28;20089;-58
2023/09/01 07:05:58;;;;;;;10.40;7.03;;;;;;;;;;5050632;28;20076;-59
2023/09/01 07:08:28;;;;;;;15.40;6.75;;;;;;;;;;5046046;28;20053;-59
2023/09/01 07:11:02;;;;;;;9.85;6.20;;;;;;;;;;5040640;28;20544;-59
2023/09/01 07:13:30;;;;;;;13.07;6.57;;;;;;;;;;5030256;28;20068;-60
2023/09/01 07:15:56;;;;;;;11.55;5.97;;;;;;;;;;5041959;28;20285;-58
2023/09/01 07:18:23;;;;;;;11.32;6.63;;;;;;;;;;5042550;28;20057;-59
2023/09/01 07:20:50;;;;;;;12.35;6.25;;;;;;;;;;5039717;28;20568;-59
2023/09/01 07:23:16;;;;;;;13.23;6.50;;;;;;;;;;5034418;28;20145;-57
2023/09/01 07:25:44;;;;;;;8.68;6.13;;;;;;;;;;5030827;28;20123;-59
2023/09/01 07:28:14;;;;;;;10.48;5.90;;;;;;;;;;5036453;28;20451;-58
2023/09/01 07:30:41;;;;;;;9.88;6.35;;;;;;;;;;5040160;28;20053;-58
2023/09/01 07:33:07;;;;;;;13.57;6.80;;;;;;;;;;5035292;28;20143;-59
2023/09/01 07:35:34;;;;;;;9.95;5.80;;;;;;;;;;5043318;28;20064;-58
2023/09/01 07:38:02;;;;;;;13.75;5.78;;;;;;;;;;5043228;28;20614;-59
2023/09/01 07:40:32;;;;;;;20.40;6.82;;;;;;;;;;5039914;28;20594;-56
2023/09/01 07:42:59;;;;;;;11.55;6.40;;;;;;;;;;5042705;28;20061;-57
2023/09/01 07:45:29;;;;;;;13.77;5.93;;;;;;;;;;5043059;28;20061;-58
2023/09/01 07:47:55;;;;;;;16.52;6.85;;;;;;;;;;5045945;28;20060;-58
2023/09/01 07:50:42;;;;;;;10.50;6.10;;;;;;;;;;5046112;28;20064;-57
2023/09/01 07:53:08;;;;;;;13.90;6.30;;;;;;;;;;5048223;28;20584;-57
2023/09/01 07:55:34;;;;;;;9.38;5.82;;;;;;;;;;5041607;28;20061;-55
2023/09/01 07:58:01;;;;;;;12.38;6.18;;;;;;;;;;5044505;28;20060;-59
2023/09/01 08:00:28;;;;;;;11.70;6.30;;;;;;;;;;5036687;28;20077;-58
2023/09/01 08:02:55;;;;;;;10.20;6.22;;;;;;;;;;5059609;28;20046;-56
2023/09/01 08:05:22;;;;;;;13.50;5.80;;;;;;;;;;5053445;28;20371;-57
2023/09/01 08:07:51;;;;;;;10.15;6.70;;;;;;;;;;5044367;28;20061;-58
2023/09/01 08:10:17;;;;;;;11.43;7.10;;;;;;;;;;5044942;28;20159;-57
2023/09/01 08:12:44;;;;;;;13.80;6.30;;;;;;;;;;5045141;28;20520;-58
2023/09/01 08:15:11;;;;;;;11.43;6.63;;;;;;;;;;5045724;28;20049;-58
2023/09/01 08:17:37;;;;;;;11.68;5.70;;;;;;;;;;5044998;28;20054;-58
2023/09/01 08:20:04;;;;;;;9.18;5.78;;;;;;;;;;5042557;28;20057;-58
2023/09/01 08:22:33;;;;;;;9.25;5.50;;;;;;;;;;5051427;28;20053;-57
2023/09/01 08:25:00;;;;;;;17.40;6.03;;;;;;;;;;5050550;28;20053;-58
2023/09/01 08:27:27;;;;;;;11.63;6.10;;;;;;;;;;5045615;28;20053;-58
2023/09/01 08:29:54;;;;;;;10.00;5.57;;;;;;;;;;5045086;28;20483;-57
2023/09/01 08:32:21;;;;;;;15.10;6.68;;;;;;;;;;5036581;28;20148;-59
2023/09/01 08:34:47;;;;;;;7.40;5.25;;;;;;;;;;5031091;28;20081;-58
2023/09/01 08:37:17;;;;;;;9.02;6.60;;;;;;;;;;5041489;28;20104;-54
2023/09/01 08:39:44;;;;;;;10.93;6.10;;;;;;;;;;5044704;28;20053;-56
2023/09/01 08:42:11;;;;;;;13.45;7.07;;;;;;;;;;5045475;28;20081;-58
2023/09/01 08:44:39;;;;;;;7.53;5.88;;;;;;;;;;5039046;28;20060;-57
2023/09/01 08:47:07;;;;;;;11.40;7.28;;;;;;;;;;5082495;28;20721;-56
2023/09/01 08:49:34;;;;;;;11.68;6.78;;;;;;;;;;5027638;28;20100;-57
2023/09/01 08:52:01;;;;;;;12.18;5.55;;;;;;;;;;5043887;28;20052;-59
2023/09/01 08:54:30;;;;;;;9.88;5.65;;;;;;;;;;5042620;28;20061;-57
2023/09/01 08:56:56;;;;;;;11.55;5.30;;;;;;;;;;5041969;28;20104;-57
2023/09/01 08:59:24;;;;;;;11.27;5.75;;;;;;;;;;5053957;28;20069;-58
2023/09/01 09:01:51;;;;;;;8.80;5.50;;;;;;;;;;5038364;28;20058;-57
2023/09/01 09:04:17;;;;;;;10.48;6.35;;;;;;;;;;5032921;28;20049;-57
2023/09/01 09:06:44;;;;;;;13.18;6.25;;;;;;;;;;5041653;28;20176;-57
2023/09/01 09:09:12;;;;;;;13.15;6.63;;;;;;;;;;5044321;28;20073;-57
2023/09/01 09:11:38;;;;;;;9.98;6.35;;;;;;;;;;5035462;28;20057;-58
2023/09/01 09:14:06;;;;;;;8.82;7.00;;;;;;;;;;5041587;28;20057;-56
2023/09/01 09:16:49;;;;;;;12.43;6.45;;;;;;;;;;5036322;28;20076;-58
2023/09/01 09:19:18;;;;;;;8.75;5.88;;;;;;;;;;5043779;28;20128;-57
2023/09/01 09:21:45;;;;;;;15.20;7.32;;;;;;;;;;5036308;28;20054;-58
2023/09/01 09:24:11;;;;;;;9.48;6.22;;;;;;;;;;5042539;28;20053;-57
2023/09/01 09:26:55;;;;;;;10.57;6.55;;;;;;;;;;5034906;28;20054;-58
2023/09/01 09:29:21;;;;;;;11.60;7.22;;;;;;;;;;5038895;28;20056;-54
2023/09/01 09:31:48;;;;;;;9.27;6.63;;;;;;;;;;5033659;28;20108;-56
2023/09/01 09:34:24;;;;;;;9.93;6.72;;;;;;;;;;5036962;28;20069;-57
2023/09/01 09:36:51;;;;;;;9.88;6.50;;;;;;;;;;5032673;28;20054;-57
2023/09/01 09:39:24;;;;;;;8.35;6.53;;;;;;;;;;5032199;28;20077;-57
2023/09/01 09:41:50;;;;;;;9.88;6.20;;;;;;;;;;5030837;28;20058;-58
2023/09/01 09:44:28;;;;;;;8.93;6.78;;;;;;;;;;5046300;28;20073;-56
2023/09/01 09:46:55;;;;;;;22.55;6.35;;;;;;;;;;5041728;28;20826;-58
2023/09/01 09:49:22;;;;;;;9.07;5.53;;;;;;;;;;5036115;28;20050;-57
2023/09/01 09:51:51;;;;;;;10.07;6.55;;;;;;;;;;5036090;28;20515;-57
2023/09/01 09:54:22;;;;;;;9.32;5.80;;;;;;;;;;5033166;28;20504;-57
2023/09/01 09:56:50;;;;;;;10.27;5.78;;;;;;;;;;5048684;28;20050;-57
2023/09/01 09:59:24;;;;;;;13.45;6.10;;;;;;;;;;5039967;28;20050;-58
2023/09/01 10:01:52;;;;;;;11.57;5.90;;;;;;;;;;5027785;28;20151;-56
2023/09/01 10:04:19;;;;;;;11.80;5.88;;;;;;;;;;5034958;28;20112;-58
2023/09/01 10:06:46;;;;;;;11.40;6.28;;;;;;;;;;5041370;28;20437;-57
2023/09/01 10:09:16;;;;;;;11.90;5.75;;;;;;;;;;5032567;28;20619;-59
2023/09/01 10:11:44;;;;;;;9.15;5.70;;;;;;;;;;5043545;28;20464;-58
2023/09/01 10:14:13;;;;;;;8.40;5.30;;;;;;;;;;5032734;28;20133;-58
2023/09/01 10:16:40;;;;;;;12.15;5.68;;;;;;;;;;5029311;28;20053;-58
2023/09/01 10:19:08;;;;;;;13.57;5.85;;;;;;;;;;5040073;28;20064;-57
2023/09/01 10:21:35;;;;;;;11.70;6.22;;;;;;;;;;5038483;28;20054;-53
2023/09/01 10:24:02;;;;;;;13.15;6.03;;;;;;;;;;5041586;28;20605;-58
2023/09/01 10:26:29;;;;;;;10.93;6.00;;;;;;;;;;5043776;28;20111;-57
2023/09/01 10:29:00;;;;;;;10.35;5.45;;;;;;;;;;5037597;28;20057;-57
2023/09/01 10:31:28;;;;;;;15.07;6.57;;;;;;;;;;5040706;28;20050;-58
2023/09/01 10:34:04;;;;;;;10.77;5.20;;;;;;;;;;5039939;28;20077;-56
2023/09/01 10:36:31;;;;;;;6.30;4.97;;;;;;;;;;5043529;28;20104;-57
2023/09/01 10:39:16;;;;;;;19.75;5.35;;;;;;;;;;5043059;28;20140;-57
2023/09/01 10:41:49;;;;;;;9.35;4.85;;;;;;;;;;5045724;28;20060;-58
2023/09/01 10:44:16;;;;;;;12.38;5.38;;;;;;;;;;5028763;28;20050;-57
2023/09/01 10:46:42;;;;;;;9.98;6.00;;;;;;;;;;5039992;28;20054;-57
2023/09/01 10:49:10;;;;;;;9.75;5.18;;;;;;;;;;5037100;28;20058;-56
2023/09/01 10:51:37;;;;;;;6.82;5.25;;;;;;;;;;5038494;28;20193;-56
2023/09/01 10:54:24;;;;;;;9.48;5.95;;;;;;;;;;5026445;28;20053;-56
2023/09/01 10:56:53;;;;;;;9.50;4.80;;;;;;;;;;5030705;28;20128;-57
2023/09/01 10:59:29;;;;;;;9.40;5.25;;;;;;;;;;5029467;28;20053;-55
2023/09/01 11:01:55;;;;;;;8.70;5.85;;;;;;;;;;5031124;28;20137;-56
2023/09/01 11:04:22;;;;;;;8.65;5.82;;;;;;;;;;5034117;28;20164;-57
2023/09/01 11:06:54;;;;;;;9.75;6.03;;;;;;;;;;5038978;28;20535;-57
2023/09/01 11:09:21;;;;;;;10.05;5.50;;;;;;;;;;5042774;28;20056;-56
2023/09/01 11:11:50;;;;;;;10.07;6.10;;;;;;;;;;5039161;28;20109;-51
2023/09/01 11:14:20;;;;;;;14.15;6.65;;;;;;;;;;5041246;28;20619;-57
2023/09/01 11:16:46;;;;;;;8.15;6.30;;;;;;;;;;5033080;28;20060;-55
2023/09/01 11:19:13;;;;;;;15.60;6.22;;;;;;;;;;5039092;28;20071;-56
2023/09/01 11:21:42;;;;;;;9.73;5.97;;;;;;;;;;5039201;28;20809;-57
2023/09/01 11:24:09;;;;;;;15.82;7.07;;;;;;;;;;5042852;28;20052;-56
2023/09/01 11:26:38;;;;;;;15.02;7.10;;;;;;;;;;5032742;28;20096;-54
2023/09/01 11:29:11;;;;;;;10.27;7.35;;;;;;;;;;5035673;28;20145;-57
2023/09/01 11:31:38;;;;;;;10.23;6.82;;;;;;;;;;5043219;28;20050;-57
2023/09/01 11:34:05;;;;;;;18.67;7.45;;;;;;;;;;5037646;28;20074;-57
2023/09/01 11:36:32;;;;;;;12.68;7.22;;;;;;;;;;5037505;28;20061;-57
2023/09/01 11:38:59;;;;;;;16.17;7.35;;;;;;;;;;5040480;28;20127;-55
2023/09/01 11:41:26;;;;;;;10.20;6.72;;;;;;;;;;5040366;28;20633;-57
2023/09/01 11:43:56;;;;;;;11.73;7.32;;;;;;;;;;5038698;28;20540;-56
2023/09/01 11:46:32;;;;;;;11.60;7.03;;;;;;;;;;5031602;28;20045;-57
2023/09/01 11:49:00;;;;;;;17.85;7.47;;;;;;;;;;5040774;28;20061;-55
2023/09/01 11:51:30;;;;;;;10.63;7.03;;;;;;;;;;5037312;28;21009;-57
2023/09/01 11:53:57;;;;;;;9.35;7.32;;;;;;;;;;5044553;28;20060;-57
2023/09/01 11:56:24;;;;;;;12.48;7.22;;;;;;;;;;5044318;28;20057;-56
2023/09/01 11:58:52;;;;;;;9.50;6.45;;;;;;;;;;5034988;28;20104;-57
2023/09/01 12:01:20;;;;;;;11.35;7.50;;;;;;;;;;5029033;28;20064;-56
2023/09/01 12:03:47;;;;;;;12.32;7.68;;;;;;;;;;5043523;28;20053;-57
2023/09/01 12:06:20;;;;;;;9.05;6.72;;;;;;;;;;5044381;28;20061;-57
2023/09/01 12:08:47;;;;;;;18.00;8.02;;;;;;;;;;5041587;28;20046;-60
2023/09/01 12:11:14;;;;;;;22.17;8.65;;;;;;;;;;5039261;28;20049;-58
2023/09/01 12:13:43;;;;;;;12.15;7.10;;;;;;;;;;5043047;28;20514;-59
2023/09/01 12:16:23;;;;;;;10.15;7.78;;;;;;;;;;5040374;28;20057;-58
2023/09/01 12:18:50;;;;;;;11.50;7.80;;;;;;;;;;5048020;28;20056;-59
2023/09/01 12:21:16;;;;;;;10.98;7.63;;;;;;;;;;5047538;28;20504;-57
2023/09/01 12:23:44;;;;;;;10.65;7.93;;;;;;;;;;5034068;28;20058;-58
2023/09/01 12:26:14;;;;;;;9.63;6.60;;;;;;;;;;5035015;28;20378;-56
2023/09/01 12:28:42;;;;;;;15.35;7.40;;;;;;;;;;5043055;28;20053;-56
2023/09/01 12:31:08;;;;;;;8.93;7.07;;;;;;;;;;5043099;28;20131;-60
2023/09/01 12:33:35;;;;;;;12.85;7.95;;;;;;;;;;5045524;28;20053;-61
2023/09/01 12:36:02;;;;;;;12.32;7.80;;;;;;;;;;5044708;28;20127;-60
2023/09/01 12:38:29;;;;;;;9.35;7.13;;;;;;;;;;5049445;28;20428;-60
2023/09/01 12:40:56;;;;;;;9.35;6.78;;;;;;;;;;5039372;28;20123;-57
2023/09/01 12:43:22;;;;;;;12.20;7.85;;;;;;;;;;5046039;28;20058;-60
2023/09/01 12:45:49;;;;;;;11.32;7.80;;;;;;;;;;5040022;28;20770;-58
2023/09/01 12:48:16;;;;;;;11.15;8.07;;;;;;;;;;5039272;28;20549;-60
2023/09/01 12:50:46;;;;;;;11.90;8.10;;;;;;;;;;5045221;28;20053;-57
2023/09/01 12:53:13;;;;;;;10.68;7.63;;;;;;;;;;5041483;28;20444;-59
2023/09/01 12:55:40;;;;;;;10.40;8.15;;;;;;;;;;5043938;28;20488;-59
2023/09/01 12:58:07;;;;;;;10.45;7.88;;;;;;;;;;5049015;28;20141;-60
2023/09/01 13:00:34;;;;;;;12.30;8.73;;;;;;;;;;5036501;28;20068;-60
2023/09/01 13:03:01;;;;;;;10.70;7.53;;;;;;;;;;5040704;28;20061;-59
2023/09/01 13:05:29;;;;;;;10.27;7.63;;;;;;;;;;5034470;28;20488;-59
2023/09/01 13:07:55;;;;;;;9.95;8.05;;;;;;;;;;5035241;28;20057;-61
2023/09/01 13:10:22;;;;;;;14.82;7.38;;;;;;;;;;5042663;28;20049;-59
2023/09/01 13:12:48;;;;;;;14.05;7.70;;;;;;;;;;5044327;28;20108;-60
2023/09/01 13:15:15;;;;;;;10.48;7.40;;;;;;;;;;5048297;28;20250;-59
2023/09/01 13:17:42;;;;;;;9.18;7.07;;;;;;;;;;5044696;28;20049;-59
2023/09/01 13:20:09;;;;;;;10.90;7.47;;;;;;;;;;5032236;28;20076;-59
2023/09/01 13:22:35;;;;;;;7.68;6.88;;;;;;;;;;5036486;28;20053;-59
2023/09/01 13:25:04;;;;;;;11.85;8.32;;;;;;;;;;5045402;28;20076;-57
2023/09/01 13:27:31;;;;;;;14.02;9.40;;;;;;;;;;5048046;28;20056;-59
2023/09/01 13:29:58;;;;;;;14.35;9.13;;;;;;;;;;5042310;28;20095;-57
2023/09/01 13:32:24;;;;;;;10.95;8.57;;;;;;;;;;5037631;28;20145;-58
2023/09/01 13:34:50;;;;;;;13.95;8.27;;;;;;;;;;5043800;28;20061;-57
2023/09/01 13:37:17;;;;;;;14.25;7.85;;;;;;;;;;5040029;28;20058;-58
2023/09/01 13:39:44;;;;;;;10.63;8.15;;;;;;;;;;5041525;28;20061;-57
2023/09/01 13:42:10;;;;;;;10.73;8.02;;;;;;;;;;5027115;28;20868;-58
2023/09/01 13:44:36;;;;;;;11.90;8.27;;;;;;;;;;5047024;28;20128;-59
2023/09/01 13:47:03;;;;;;;12.38;8.45;;;;;;;;;;5044854;28;20057;-58
2023/09/01 13:49:30;;;;;;;15.75;7.97;;;;;;;;;;5048346;28;20057;-58
2023/09/01 13:51:56;;;;;;;9.73;7.68;;;;;;;;;;5042939;28;20786;-58
2023/09/01 13:54:22;;;;;;;10.93;8.50;;;;;;;;;;5051659;28;20143;-59
2023/09/01 13:56:49;;;;;;;9.60;7.03;;;;;;;;;;5047091;28;20056;-60
2023/09/01 13:59:15;;;;;;;12.30;6.88;;;;;;;;;;5032256;28;20053;-57
2023/09/01 14:01:42;;;;;;;8.68;6.43;;;;;;;;;;5030605;28;20062;-58
2023/09/01 14:04:08;;;;;;;7.22;6.03;;;;;;;;;;5040965;28;20049;-58
2023/09/01 14:06:34;;;;;;;8.43;6.82;;;;;;;;;;5029460;28;20053;-58
2023/09/01 14:09:04;;;;;;;9.27;6.45;;;;;;;;;;5041589;28;20064;-59
2023/09/01 14:11:31;;;;;;;7.65;5.80;;;;;;;;;;5041739;28;20416;-59
2023/09/01 14:13:57;;;;;;;9.45;5.78;;;;;;;;;;5043253;28;20053;-58
2023/09/01 14:16:23;;;;;;;7.68;5.30;;;;;;;;;;5044352;28;20061;-57
2023/09/01 14:18:57;;;;;;;5.80;4.78;;;;;;;;;;5043122;28;20136;-57
2023/09/01 14:21:24;;;;;;;7.45;5.50;;;;;;;;;;5038220;28;20193;-58
2023/09/01 14:23:50;;;;;;;8.75;5.80;;;;;;;;;;5048478;28;20180;-59
2023/09/01 14:26:17;;;;;;;6.10;5.50;;;;;;;;;;5047650;28;20557;-58
2023/09/01 14:28:43;;;;;;;7.47;5.10;;;;;;;;;;5040348;28;20057;-63
2023/09/01 14:31:10;;;;;;;5.72;5.13;;;;;;;;;;5037442;28;20060;-61
2023/09/01 14:33:36;;;;;;;6.97;5.50;;;;;;;;;;5040075;28;20065;-60
2023/09/01 14:36:14;;;;;;;6.32;5.32;;;;;;;;;;5063452;28;20115;-58
2023/09/01 14:38:40;;;;;;;7.47;5.20;;;;;;;;;;5032408;28;20468;-59